RPi & Temperatures at JO21ut

Last graph updates: Tuesday 25 July 2017 10:02 CEST

Sunrise: 05:48 & Sunset: 21:38 The Sun is currently visible at an elevation of 40.98 degrees and azimut of 113 and 151943806 Km from the Earth
Moonrise: 8:18 & Moonset: 22:47 Waxing Crescent Moon The Moon is 376301 Km from the Earth
Find here more details on MARS.

10:32:57 up 8 days, 20:29, 0 users, load average: 0.58, 0.44, 0.41
Current CPU frequency is: 1000 Mhz
Current GPU temperature: 32.014°C
Current inside temperature is 22.2°C with a humidity of 70.8%
Second inside temperature is 22.1°C with a pressure of 1006.79 Hpa (29.5 inHg) and an uncorrected altitude of 53.50 m
ds18b20 now showing 22.1°C

All the sensors I use, DHT22 | BMP085 | MPU6050 | BH1750FVI | MMA7455 | HMC5883L | MPL3115A2 | DS1307 | HTU21 | AM2321 | DS3231 | INA219 , and it's current readout can be viewed here please be patient as it needs to read all sensors data. The page loads after about 10 seconds. In our forum more details can be found such as the used software/sources. Feel free to add yours also..


Pressure BMP085
Pressure BMP085
Pressure BMP085
Pressure BMP085
PI CPU Temp
Inet Volkel temp
Inside temp BMP085
Humidity BMP085
PI CPU Temp
Inet Volkel temp
Inside temp BMP085
Humidity BMP085
PI CPU Temp
Inet Volkel temp
Inside temp BMP085
Humidity BMP085
PI CPU Temp
Inet Volkel temp
Inside temp BMP085
Humidity BMP085
PI CPU Temp
Inet Volkel temp
Inside temp BMP085
Humidity BMP085
Inside light BH1750FV
Inside light BH1750FV
Inside light BH1750FV
Inside light BH1750FV
Inside light BH1750FV
Inside light BH1750FV
 

Sun & Moon height


Wijchen weather

Weer Widget
ScreenSaver yr.no

Sun Moon Earth


EHEH 250827Z AUTO 32011KT 270V020 9999 FEW021 SCT025 19/13 Q1011 BLU 31010KT 9999 SCT015 SCT080 TEMPO FEW010 SCT015CB BKN020 EHEH 250827Z AUTO 32011KT 270V020 9999 FEW021 SCT025 19/13 Q1011 BLU 31010KT 9999 SCT015 SCT080 TEMPO FEW010 SCT015CB BKN020 EHEH 250827Z AUTO 32011KT 270V020 9999 FEW021 SCT025 19/13 Q1011 BLU 31010KT 9999 SCT015 SCT080 TEMPO FEW010 SCT015CB BKN020

Weather data from Volkel [NL] EHVK


6 minutes ago, at 08:27 UTC, the wind was blowing at a speed of 5.1 meters per second (11.5 miles per hour/10 knots) from Northwest (310) in Volkel [EHVK], Netherlands. The temperature was 19 °C (66 °F) with a dewpoint of 13 °C (55 °F), and the pressure was 1,011 hPa (29.85 inHg). The relative humidity was 68.2%. There were a few clouds at a height of 640 meter (2100 feet), scattered clouds at a height of 762 meter (2500 feet) and scattered clouds at a height of 457 meter (1500 feet). The visibility was >10 kilometers (>6.2 miles).




View code:

Contact me  |  My Raspberry PI forum